首页
METAR-TAF:

METAR-TAF

机场 :

迪拜国际机场

杜拜, 阿拉伯联合酋长国

纬度: 25-15-10N, 经度: 055-21-52E, 海拔: 8米

当前天气观测

该预报发布于26分钟前的09:00 UTC
风速9节,风向西北
温度 38°C
湿度 68%
气压 997 hPa
能見度: 8000

METAR: OMDB 120900Z 31009KT 8000 NSC 38/31 Q0997 NOSIG

时间: 13:26 (09:26 UTC)

预报

该预报发布于4小时和31分钟前的04:55 UTC
预报有效从12日的 06点(UTC)到 13日的 12点(UTC)
风速7节,风向
能见度10公里或以上
1500米以下无云,无积雨云
成为
从 12日的 07点(UTC)到 12日的 09点(UTC)
风速12节,风向西转西北
成为
从 12日的 18点(UTC)到 12日的 20点(UTC)
风速5节,风向
几率 30% :
短暂存在
从 12日的 22点(UTC)到 13日的 04点(UTC)
多云层高于1400英尺
成为
从 13日的 07点(UTC)到 13日的 09点(UTC)
风速12节,风向西

TAF: OMDB 120455Z 1206/1312 19007KT CAVOK BECMG 1207/1209 29012KT BECMG 1218/1220 17005KT PROB30 TEMPO 1222/1304 BKN014 BECMG 1307/1309 28012KT

超过4000个机场的气象观测和天气预报(METAR&TAF报告)。

可查询的气象台以黄色和红色小点在地图上表示。

将鼠标移到小点上方,可查看气象台名称。

然后点击查看天气观测和预报。

如需切换地图:点击带黑十字的绿色按钮放大地图;点击带横线的绿色按钮缩小地图;或者点击绿色箭头查看邻近地区的地图。


METAR-TAF: